createdAt,value
2023-05-23T00:01:37.370Z,15.10
2023-05-23T00:05:39.270Z,15.00
2023-05-23T00:09:41.154Z,15.10
2023-05-23T00:13:43.015Z,15.00
2023-05-23T00:17:44.954Z,15.10
2023-05-23T00:21:52.381Z,15.00
2023-05-23T00:25:54.390Z,15.10
2023-05-23T00:29:56.754Z,14.90
2023-05-23T00:33:58.505Z,14.80
2023-05-23T00:38:02.257Z,14.80
2023-05-23T00:42:07.879Z,14.80
2023-05-23T00:46:11.312Z,14.90
2023-05-23T00:50:14.786Z,14.70
2023-05-23T00:54:21.456Z,14.60
2023-05-23T00:58:24.589Z,14.70
2023-05-23T01:02:27.911Z,14.70
2023-05-23T01:06:30.632Z,14.60
2023-05-23T01:10:32.472Z,14.50
2023-05-23T01:15:04.411Z,14.50
2023-05-23T01:19:49.189Z,14.40
2023-05-23T01:24:23.199Z,14.50
2023-05-23T01:28:29.868Z,14.50
2023-05-23T01:32:32.633Z,14.50
2023-05-23T01:36:37.720Z,14.50
2023-05-23T01:40:39.581Z,14.60
2023-05-23T01:44:42.072Z,14.50
2023-05-23T01:48:44.750Z,14.50
2023-05-23T01:52:47.409Z,14.50
2023-05-23T01:56:50.807Z,14.40
2023-05-23T02:00:52.766Z,14.40
2023-05-23T02:04:54.517Z,14.40
2023-05-23T02:08:56.186Z,14.40
2023-05-23T02:12:57.940Z,14.40
2023-05-23T02:17:00.496Z,14.40
2023-05-23T02:21:02.428Z,14.30
2023-05-23T02:25:04.724Z,14.30
2023-05-23T02:29:06.825Z,14.20
2023-05-23T02:33:08.843Z,14.20
2023-05-23T02:37:10.728Z,14.10
2023-05-23T02:41:12.688Z,14.10
2023-05-23T02:45:14.452Z,14.10
2023-05-23T02:49:16.267Z,14.00
2023-05-23T02:53:20.824Z,14.00
2023-05-23T02:57:22.732Z,14.00
2023-05-23T03:01:24.641Z,14.00
2023-05-23T03:05:26.469Z,13.90
2023-05-23T03:09:28.236Z,13.70
2023-05-23T03:13:31.184Z,13.70
2023-05-23T03:17:32.969Z,13.50
2023-05-23T03:21:35.607Z,13.60
2023-05-23T03:25:37.400Z,13.50
2023-05-23T03:29:39.662Z,13.60
2023-05-23T03:33:41.439Z,13.60
2023-05-23T03:37:43.233Z,13.60
2023-05-23T03:41:44.974Z,13.60
2023-05-23T03:45:47.428Z,13.60
2023-05-23T03:49:49.306Z,13.50
2023-05-23T03:53:51.132Z,13.60
2023-05-23T03:57:52.976Z,13.50
2023-05-23T04:01:55.197Z,13.60
2023-05-23T04:05:57.856Z,13.50
2023-05-23T04:09:59.647Z,13.40
2023-05-23T04:14:02.087Z,13.40
2023-05-23T04:18:04.008Z,13.20
2023-05-23T04:22:06.045Z,13.10
2023-05-23T04:26:07.807Z,13.10
2023-05-23T04:30:10.268Z,13.10
2023-05-23T04:34:12.156Z,13.10
2023-05-23T04:38:13.941Z,13.00
2023-05-23T04:42:15.807Z,13.00
2023-05-23T04:46:19.035Z,13.00
2023-05-23T04:50:22.898Z,12.90
2023-05-23T04:54:24.745Z,12.80
2023-05-23T04:58:27.544Z,12.80
2023-05-23T05:02:33.823Z,12.90
2023-05-23T05:06:35.613Z,12.80
2023-05-23T05:10:38.585Z,12.90
2023-05-23T05:14:40.467Z,13.00
2023-05-23T05:18:42.573Z,13.00
2023-05-23T05:22:44.608Z,13.00
2023-05-23T05:26:46.947Z,13.10
2023-05-23T05:30:54.297Z,13.20
2023-05-23T05:34:56.294Z,13.10
2023-05-23T05:38:58.053Z,13.20
2023-05-23T05:42:59.863Z,13.20
2023-05-23T05:47:04.351Z,13.30
2023-05-23T05:51:06.482Z,13.30
2023-05-23T05:55:13.253Z,13.30
2023-05-23T05:59:15.294Z,13.30
2023-05-23T06:03:17.118Z,13.40
2023-05-23T06:07:19.000Z,13.30
2023-05-23T06:11:20.962Z,13.30
2023-05-23T06:15:22.764Z,13.30
2023-05-23T06:19:24.601Z,13.30
2023-05-23T06:23:26.742Z,13.30
2023-05-23T06:27:30.728Z,13.20
2023-05-23T06:31:32.515Z,13.20
2023-05-23T06:35:34.436Z,13.30
2023-05-23T06:39:36.229Z,13.20
2023-05-23T06:43:38.092Z,13.10
2023-05-23T06:47:43.666Z,13.10
2023-05-23T06:51:45.683Z,13.00
2023-05-23T06:55:47.477Z,13.10
2023-05-23T06:59:49.339Z,13.10
2023-05-23T07:03:51.055Z,13.10
2023-05-23T07:07:52.781Z,13.10
2023-05-23T07:11:54.592Z,13.10
2023-05-23T07:15:56.759Z,13.20
2023-05-23T07:19:58.551Z,13.20
2023-05-23T07:24:00.542Z,13.30
2023-05-23T07:28:02.369Z,13.30
2023-05-23T07:32:04.191Z,13.30
2023-05-23T07:36:06.152Z,13.20
2023-05-23T07:40:09.520Z,13.20
2023-05-23T07:44:11.260Z,13.30
2023-05-23T07:48:13.078Z,13.20
2023-05-23T07:52:14.842Z,13.20
2023-05-23T07:56:17.109Z,13.20
2023-05-23T08:00:19.488Z,13.20
2023-05-23T08:04:21.488Z,13.10
2023-05-23T08:08:23.248Z,13.10
2023-05-23T08:12:25.049Z,13.10
2023-05-23T08:16:28.100Z,13.10
2023-05-23T08:20:32.700Z,12.90
2023-05-23T08:24:34.508Z,12.90
2023-05-23T08:28:36.288Z,12.80
2023-05-23T08:32:38.109Z,12.80
2023-05-23T08:36:42.342Z,12.90
2023-05-23T08:40:50.455Z,13.00
2023-05-23T08:44:52.644Z,13.00
2023-05-23T08:48:55.529Z,13.10
2023-05-23T08:52:57.855Z,13.20
2023-05-23T08:56:59.954Z,12.90
2023-05-23T09:01:02.062Z,12.70
2023-05-23T09:05:04.961Z,12.80
2023-05-23T09:09:07.265Z,12.70
2023-05-23T09:13:09.960Z,12.80
2023-05-23T09:17:18.162Z,12.70
2023-05-23T09:21:20.180Z,12.80
2023-05-23T09:25:22.142Z,12.70
2023-05-23T09:29:23.970Z,12.90
2023-05-23T09:33:33.463Z,13.10
2023-05-23T09:37:37.750Z,12.90
2023-05-23T09:41:39.835Z,13.00
2023-05-23T09:45:41.580Z,12.80
2023-05-23T09:49:47.077Z,12.70
2023-05-23T09:53:53.086Z,12.70
2023-05-23T09:57:58.594Z,12.80
2023-05-23T10:02:02.403Z,12.80
2023-05-23T10:06:10.824Z,12.60
2023-05-23T10:10:13.489Z,12.60
2023-05-23T10:14:16.700Z,12.60
2023-05-23T10:18:23.853Z,12.40
2023-05-23T10:22:26.250Z,12.20
2023-05-23T10:26:28.565Z,12.10
2023-05-23T10:30:30.579Z,12.20
2023-05-23T10:34:59.799Z,12.30
2023-05-23T10:39:22.696Z,12.40
2023-05-23T10:43:31.169Z,12.40
2023-05-23T10:47:34.291Z,12.40
2023-05-23T10:51:39.544Z,12.60
2023-05-23T10:55:41.402Z,12.70
2023-05-23T10:59:44.274Z,12.80
2023-05-23T11:03:46.127Z,12.70
2023-05-23T11:08:17.655Z,12.90
2023-05-23T11:12:43.404Z,13.30
2023-05-23T11:16:47.165Z,13.30
2023-05-23T11:20:54.677Z,13.70
2023-05-23T11:24:58.164Z,13.70
2023-05-23T11:29:00.188Z,13.80
2023-05-23T11:33:13.506Z,13.90
2023-05-23T11:37:15.774Z,13.90
2023-05-23T11:41:17.604Z,14.10
2023-05-23T11:45:23.664Z,14.20
2023-05-23T11:49:28.165Z,13.90
2023-05-23T11:53:30.602Z,13.70
2023-05-23T11:57:33.650Z,13.70
2023-05-23T12:01:37.808Z,14.10
2023-05-23T12:05:39.706Z,14.70
2023-05-23T12:09:44.798Z,15.20
2023-05-23T12:13:46.644Z,14.60
2023-05-23T12:17:49.642Z,14.40
2023-05-23T12:21:51.476Z,14.60
2023-05-23T12:25:54.333Z,15.30
2023-05-23T12:30:05.841Z,14.80
2023-05-23T12:34:07.615Z,14.90
2023-05-23T12:38:09.573Z,14.40
2023-05-23T12:42:11.619Z,14.20
2023-05-23T12:46:13.619Z,13.80
2023-05-23T12:50:15.743Z,13.80
2023-05-23T12:54:18.205Z,14.10
2023-05-23T12:58:19.997Z,14.00
2023-05-23T13:02:21.734Z,13.70
2023-05-23T13:06:23.564Z,13.90
2023-05-23T13:10:25.528Z,14.00
2023-05-23T13:14:27.290Z,13.90
2023-05-23T13:18:29.057Z,14.00
2023-05-23T13:22:31.338Z,14.00
2023-05-23T13:26:33.096Z,14.00
2023-05-23T13:30:34.944Z,14.10
2023-05-23T13:34:37.539Z,14.20
2023-05-23T13:38:39.334Z,14.00
2023-05-23T13:42:41.222Z,14.20
2023-05-23T13:46:43.763Z,14.30
2023-05-23T13:50:45.717Z,14.20
2023-05-23T13:54:47.653Z,14.30
2023-05-23T13:58:49.454Z,14.20
2023-05-23T14:02:51.172Z,14.30
2023-05-23T14:06:53.222Z,14.40
2023-05-23T14:10:54.952Z,14.50
2023-05-23T14:14:56.992Z,14.60
2023-05-23T14:18:58.837Z,14.90
2023-05-23T14:23:00.708Z,14.80
2023-05-23T14:27:02.605Z,14.90
2023-05-23T14:31:04.734Z,14.70
2023-05-23T14:35:07.363Z,15.20
2023-05-23T14:39:10.843Z,15.30
2023-05-23T14:43:12.729Z,15.20
2023-05-23T14:47:14.598Z,15.10
2023-05-23T14:51:27.459Z,14.80
2023-05-23T14:55:36.896Z,14.90
2023-05-23T14:59:38.653Z,15.00
2023-05-23T15:03:46.136Z,15.10
2023-05-23T15:07:48.468Z,14.90
2023-05-23T15:11:50.386Z,15.60
2023-05-23T15:15:54.195Z,15.80
2023-05-23T15:19:57.206Z,15.60
2023-05-23T15:23:59.847Z,15.30
2023-05-23T15:28:01.998Z,15.50
2023-05-23T15:32:04.091Z,15.50
2023-05-23T15:36:06.027Z,15.30
2023-05-23T15:40:08.362Z,15.30
2023-05-23T15:44:12.003Z,15.10
2023-05-23T15:48:15.128Z,15.00
2023-05-23T15:52:16.843Z,15.10
2023-05-23T15:56:18.751Z,15.00
2023-05-23T16:00:21.035Z,15.00
2023-05-23T16:04:23.641Z,15.00
2023-05-23T16:08:25.500Z,15.10
2023-05-23T16:12:27.233Z,15.10
2023-05-23T16:16:29.084Z,15.20
2023-05-23T16:20:30.960Z,15.40
2023-05-23T16:24:32.746Z,15.70
2023-05-23T16:28:34.570Z,15.30
2023-05-23T16:32:36.361Z,15.20
2023-05-23T16:36:38.303Z,15.20
2023-05-23T16:40:40.219Z,15.00
2023-05-23T16:44:42.228Z,14.90
2023-05-23T16:48:44.062Z,14.90
2023-05-23T16:52:45.866Z,14.90
2023-05-23T16:56:47.609Z,14.90
2023-05-23T17:00:49.340Z,14.90
2023-05-23T17:04:51.510Z,14.80
2023-05-23T17:08:53.267Z,14.80
2023-05-23T17:12:55.120Z,14.60
2023-05-23T17:16:57.218Z,14.60
2023-05-23T17:20:59.523Z,14.60
2023-05-23T17:25:01.902Z,14.60
2023-05-23T17:29:03.665Z,14.50
2023-05-23T17:33:05.469Z,14.50
2023-05-23T17:37:07.196Z,14.60
2023-05-23T17:41:09.201Z,14.60
2023-05-23T17:45:11.505Z,14.60
2023-05-23T17:49:13.223Z,14.70
2023-05-23T17:53:15.049Z,14.40
2023-05-23T17:57:16.890Z,14.40
2023-05-23T18:01:18.785Z,14.30
2023-05-23T18:05:21.172Z,14.20
2023-05-23T18:09:22.974Z,14.10
2023-05-23T18:13:24.757Z,14.00
2023-05-23T18:17:26.987Z,14.00
2023-05-23T18:21:28.977Z,14.10
2023-05-23T18:25:30.790Z,13.90
2023-05-23T18:29:32.662Z,13.70
2023-05-23T18:33:34.532Z,13.70
2023-05-23T18:37:37.016Z,13.60
2023-05-23T18:41:38.814Z,13.60
2023-05-23T18:45:40.855Z,13.50
2023-05-23T18:49:43.387Z,13.40
2023-05-23T18:53:45.255Z,13.30
2023-05-23T18:57:46.985Z,13.30
2023-05-23T19:01:48.842Z,13.30
2023-05-23T19:05:50.843Z,13.20
2023-05-23T19:09:52.731Z,13.10
2023-05-23T19:13:54.485Z,13.10
2023-05-23T19:17:56.723Z,13.00
2023-05-23T19:21:58.610Z,12.90
2023-05-23T19:26:00.479Z,12.90
2023-05-23T19:30:02.232Z,12.80
2023-05-23T19:34:06.650Z,12.70
2023-05-23T19:38:08.730Z,12.60
2023-05-23T19:42:10.501Z,12.60
2023-05-23T19:46:13.562Z,12.40
2023-05-23T19:50:15.570Z,12.30
2023-05-23T19:54:17.622Z,12.20
2023-05-23T19:58:19.476Z,12.20
2023-05-23T20:02:21.835Z,12.20
2023-05-23T20:06:23.658Z,12.20
2023-05-23T20:10:25.875Z,12.10
2023-05-23T20:14:29.267Z,12.00
2023-05-23T20:18:32.169Z,11.90
2023-05-23T20:22:34.186Z,11.90
2023-05-23T20:26:35.954Z,11.70
2023-05-23T20:30:37.708Z,11.70
2023-05-23T20:34:39.901Z,11.50
2023-05-23T20:38:41.725Z,11.50
2023-05-23T20:42:45.268Z,11.40
2023-05-23T20:46:48.163Z,11.30
2023-05-23T20:50:49.845Z,11.20
2023-05-23T20:54:52.418Z,11.00
2023-05-23T20:58:54.199Z,10.90
2023-05-23T21:02:56.338Z,10.80
2023-05-23T21:06:58.236Z,10.80
2023-05-23T21:10:59.994Z,10.70
2023-05-23T21:15:02.216Z,10.50
2023-05-23T21:19:04.006Z,10.50
2023-05-23T21:23:05.744Z,10.30
2023-05-23T21:27:08.439Z,10.10
2023-05-23T21:31:10.437Z,10.10
2023-05-23T21:35:12.250Z,10.10
2023-05-23T21:39:13.976Z,10.00
2023-05-23T21:43:15.750Z,9.80
2023-05-23T21:47:17.489Z,9.70
2023-05-23T21:51:19.451Z,9.70
2023-05-23T21:55:21.255Z,9.60
2023-05-23T21:59:23.325Z,9.60
2023-05-23T22:03:25.803Z,9.50
2023-05-23T22:07:27.550Z,9.50
2023-05-23T22:11:34.067Z,9.40
2023-05-23T22:15:36.934Z,9.40
2023-05-23T22:19:38.829Z,9.40
2023-05-23T22:23:41.052Z,9.40
2023-05-23T22:27:42.826Z,9.20
2023-05-23T22:31:44.860Z,9.00
2023-05-23T22:35:46.815Z,9.00
2023-05-23T22:39:48.743Z,8.90
2023-05-23T22:43:50.606Z,8.90
2023-05-23T22:47:53.958Z,8.90
2023-05-23T22:51:56.135Z,8.70
2023-05-23T22:56:00.783Z,8.70
2023-05-23T23:00:02.776Z,8.70
2023-05-23T23:04:04.597Z,8.60
2023-05-23T23:08:06.478Z,8.40
2023-05-23T23:12:08.584Z,8.50
2023-05-23T23:16:10.372Z,8.50
2023-05-23T23:20:12.884Z,8.30
2023-05-23T23:24:15.080Z,8.30
2023-05-23T23:28:17.515Z,8.20
2023-05-23T23:32:19.279Z,8.30
2023-05-23T23:36:21.404Z,8.10
2023-05-23T23:40:23.396Z,8.10
2023-05-23T23:44:25.108Z,8.10
2023-05-23T23:48:26.844Z,8.10
2023-05-23T23:52:30.005Z,7.90
2023-05-23T23:56:31.702Z,7.90
